Time;durP1;ratioP1;P1;durP2;ratioP2;P2;SDS_P1;SDS_P2;PMS_P1;PMS_P2;Temp;Humidity;BMP_temperature;BMP_pressure;BME280_temperature;BME280_humidity;BME280_pressure;Samples;Min_cycle;Max_cycle;Signal;HPM_P1;HPM_P2
2022/07/16 00:02:43;;;;;;;1.88;0.70;;;23.10;53.80;;;;;;5030055;28;20087;-63
2022/07/16 00:05:09;;;;;;;1.13;0.75;;;23.10;53.80;;;;;;5029497;28;20048;-65
2022/07/16 00:07:35;;;;;;;1.85;0.90;;;23.10;53.80;;;;;;5033421;28;20101;-65
2022/07/16 00:10:01;;;;;;;1.10;0.90;;;23.10;53.80;;;;;;5032301;28;20452;-64
2022/07/16 00:12:27;;;;;;;1.20;1.02;;;23.10;53.70;;;;;;5031134;28;20033;-64
2022/07/16 00:14:52;;;;;;;1.00;0.90;;;23.10;53.70;;;;;;5031203;28;20098;-63
2022/07/16 00:17:18;;;;;;;1.38;1.02;;;23.10;53.70;;;;;;5031935;28;20048;-64
2022/07/16 00:19:44;;;;;;;1.02;0.93;;;23.10;53.70;;;;;;5030236;28;20612;-64
2022/07/16 00:22:10;;;;;;;2.47;1.05;;;23.10;53.70;;;;;;5029916;28;20045;-64
2022/07/16 00:24:36;;;;;;;1.00;0.77;;;23.10;53.70;;;;;;5031891;28;20477;-63
2022/07/16 00:27:02;;;;;;;2.10;1.17;;;23.10;53.70;;;;;;5032594;28;20048;-63
2022/07/16 00:29:28;;;;;;;1.10;1.00;;;23.10;53.70;;;;;;5029695;28;20041;-64
2022/07/16 00:31:54;;;;;;;2.17;1.15;;;23.10;53.60;;;;;;5031071;28;20092;-63
2022/07/16 00:34:21;;;;;;;2.35;0.90;;;23.00;53.60;;;;;;5027236;28;20068;-64
2022/07/16 00:36:47;;;;;;;1.08;0.90;;;23.10;53.60;;;;;;5032890;28;20056;-64
2022/07/16 00:39:13;;;;;;;1.10;1.00;;;23.10;53.60;;;;;;5004388;28;20151;-64
2022/07/16 00:41:41;;;;;;;1.90;1.23;;;23.10;53.60;;;;;;5030556;28;20055;-63
2022/07/16 00:44:10;;;;;;;2.78;1.00;;;23.00;53.50;;;;;;5031916;28;20099;-65
2022/07/16 00:46:37;;;;;;;1.77;1.10;;;23.10;53.60;;;;;;5012837;28;20132;-64
2022/07/16 00:49:04;;;;;;;0.80;0.80;;;23.00;53.60;;;;;;5031589;28;20073;-64
2022/07/16 00:51:30;;;;;;;1.38;1.00;;;23.00;53.60;;;;;;5028874;28;20030;-64
2022/07/16 00:53:57;;;;;;;1.60;0.90;;;23.00;53.50;;;;;;5031169;28;20074;-64
2022/07/16 00:56:24;;;;;;;0.93;0.90;;;23.00;53.60;;;;;;5028134;28;20045;-65
2022/07/16 00:58:50;;;;;;;0.82;0.80;;;23.00;53.50;;;;;;5029568;28;20729;-64
2022/07/16 01:01:17;;;;;;;1.35;0.70;;;23.00;53.60;;;;;;5029868;28;20179;-64
2022/07/16 01:03:43;;;;;;;1.85;0.90;;;23.00;53.50;;;;;;5026263;28;20036;-63
2022/07/16 01:06:11;;;;;;;1.10;1.00;;;23.00;53.50;;;;;;5030181;28;20045;-63
2022/07/16 01:08:40;;;;;;;1.10;0.80;;;23.00;53.60;;;;;;5028832;28;20033;-63
2022/07/16 01:11:07;;;;;;;3.30;0.95;;;23.00;53.50;;;;;;5011141;28;20037;-64
2022/07/16 01:13:35;;;;;;;1.13;0.90;;;23.00;53.50;;;;;;5011415;28;20045;-65
2022/07/16 01:16:02;;;;;;;1.15;1.02;;;23.00;53.50;;;;;;5027644;28;20037;-65
2022/07/16 01:18:28;;;;;;;2.15;0.93;;;23.00;53.50;;;;;;4997394;28;20055;-63
2022/07/16 01:20:53;;;;;;;1.17;0.98;;;23.00;53.50;;;;;;5031059;28;20045;-63
2022/07/16 01:23:23;;;;;;;1.20;1.00;;;23.00;53.50;;;;;;5010228;28;20086;-63
2022/07/16 01:25:49;;;;;;;1.43;0.93;;;23.00;53.50;;;;;;5030387;28;20037;-64
2022/07/16 01:28:16;;;;;;;1.15;1.00;;;23.00;53.50;;;;;;5032565;28;20414;-64
2022/07/16 01:30:43;;;;;;;1.77;1.13;;;23.00;53.50;;;;;;5031208;28;20038;-64
2022/07/16 01:33:41;;;;;;;1.30;1.00;;;23.00;53.50;;;;;;5028686;28;20056;-65
2022/07/16 01:36:15;;;;;;;0.70;0.70;;;23.00;53.40;;;;;;4953535;28;20040;-64
2022/07/16 01:38:45;;;;;;;1.17;0.80;;;23.00;53.50;;;;;;5028472;28;20041;-63
2022/07/16 01:41:12;;;;;;;0.77;0.77;;;23.00;53.50;;;;;;5014045;28;20488;-63
2022/07/16 01:43:38;;;;;;;1.05;0.88;;;23.00;53.50;;;;;;5027446;28;21049;-64
2022/07/16 01:46:04;;;;;;;1.05;0.77;;;23.00;53.50;;;;;;5029860;28;20033;-64
2022/07/16 01:48:31;;;;;;;1.13;0.90;;;23.00;53.60;;;;;;5026281;28;20053;-65
2022/07/16 01:50:57;;;;;;;1.52;0.82;;;23.00;53.60;;;;;;5027908;28;20481;-64
2022/07/16 01:53:23;;;;;;;1.20;0.90;;;22.90;53.60;;;;;;5025895;28;20434;-63
2022/07/16 01:55:49;;;;;;;1.77;0.90;;;23.00;53.80;;;;;;5004802;28;20045;-63
2022/07/16 01:58:16;;;;;;;1.63;0.77;;;23.00;53.80;;;;;;5028505;28;20041;-64
2022/07/16 02:00:44;;;;;;;1.90;1.08;;;23.00;53.90;;;;;;5012421;28;20053;-64
2022/07/16 02:03:11;;;;;;;3.72;0.70;;;23.00;54.00;;;;;;5028188;28;20500;-65
2022/07/16 02:05:37;;;;;;;1.50;1.10;;;23.00;54.00;;;;;;5029332;28;20048;-66
2022/07/16 02:08:04;;;;;;;1.08;0.90;;;23.00;54.00;;;;;;5027296;28;20493;-64
2022/07/16 02:10:30;;;;;;;1.30;0.90;;;23.00;54.80;;;;;;4993072;28;20473;-63
2022/07/16 02:12:56;;;;;;;1.52;0.85;;;23.00;54.10;;;;;;5008870;28;20060;-64
2022/07/16 02:15:22;;;;;;;1.42;0.88;;;23.00;54.20;;;;;;5026947;28;20401;-64
2022/07/16 02:17:48;;;;;;;1.17;1.00;;;23.00;54.20;;;;;;5031490;28;20075;-64
2022/07/16 02:20:13;;;;;;;1.65;1.10;;;23.00;54.30;;;;;;5029394;28;20674;-63
2022/07/16 02:22:39;;;;;;;1.23;0.90;;;23.00;54.30;;;;;;5012819;28;20041;-65
2022/07/16 02:25:07;;;;;;;1.63;1.02;;;23.00;54.30;;;;;;5028219;28;20042;-65
2022/07/16 02:27:33;;;;;;;1.10;0.98;;;22.90;54.40;;;;;;5031846;28;20045;-64
2022/07/16 02:29:59;;;;;;;1.33;1.00;;;23.00;54.50;;;;;;5030570;28;20044;-63
2022/07/16 02:32:25;;;;;;;1.10;1.00;;;23.00;54.60;;;;;;5032103;28;20314;-63
2022/07/16 02:34:51;;;;;;;0.95;0.85;;;23.00;55.40;;;;;;5030823;28;20045;-63
2022/07/16 02:37:17;;;;;;;2.45;1.20;;;22.90;54.70;;;;;;5030554;28;20736;-64
2022/07/16 02:39:43;;;;;;;1.30;0.90;;;22.90;54.70;;;;;;5035007;28;20037;-64
2022/07/16 02:42:08;;;;;;;1.10;1.00;;;22.90;54.80;;;;;;5030855;28;20037;-64
2022/07/16 02:44:34;;;;;;;1.00;1.00;;;22.90;54.80;;;;;;5032180;28;20994;-64
2022/07/16 02:47:00;;;;;;;2.22;1.00;;;22.90;54.90;;;;;;5034197;28;20129;-64
2022/07/16 02:49:26;;;;;;;1.70;1.10;;;22.90;54.90;;;;;;5010901;28;20068;-64
2022/07/16 02:51:51;;;;;;;1.17;1.08;;;22.90;54.90;;;;;;5033056;28;20033;-63
2022/07/16 02:54:17;;;;;;;1.15;0.82;;;22.90;55.00;;;;;;5028123;28;20448;-64
2022/07/16 02:56:43;;;;;;;1.42;0.93;;;22.90;55.00;;;;;;5031962;28;20084;-64
2022/07/16 02:59:08;;;;;;;0.90;0.77;;;22.90;55.10;;;;;;5030103;28;20045;-64
2022/07/16 03:01:34;;;;;;;1.52;0.82;;;22.90;55.10;;;;;;5028828;28;20075;-64
2022/07/16 03:03:59;;;;;;;2.38;1.10;;;22.90;55.10;;;;;;5033012;28;20068;-64
2022/07/16 03:06:25;;;;;;;1.88;1.00;;;22.90;55.20;;;;;;5036235;28;20042;-63
2022/07/16 03:08:51;;;;;;;1.08;0.95;;;22.90;55.20;;;;;;5029693;28;20408;-65
2022/07/16 03:11:17;;;;;;;0.93;0.85;;;22.90;55.30;;;;;;5030549;28;20064;-65
2022/07/16 03:13:42;;;;;;;0.82;0.82;;;22.90;55.30;;;;;;4997246;28;20041;-64
2022/07/16 03:16:08;;;;;;;1.27;0.80;;;22.90;55.30;;;;;;5032648;28;20444;-65
2022/07/16 03:18:34;;;;;;;1.40;0.90;;;22.90;55.40;;;;;;5031456;28;20047;-65
2022/07/16 03:20:59;;;;;;;0.88;0.70;;;22.90;55.30;;;;;;5013182;28;20493;-64
2022/07/16 03:23:25;;;;;;;1.52;0.80;;;22.90;55.40;;;;;;5010735;28;20049;-64
2022/07/16 03:25:51;;;;;;;1.58;0.80;;;22.90;55.40;;;;;;5032737;28;20041;-63
2022/07/16 03:28:16;;;;;;;1.27;1.00;;;22.90;55.40;;;;;;5031336;28;20099;-63
2022/07/16 03:30:42;;;;;;;4.75;0.98;;;22.90;55.40;;;;;;5031671;28;20465;-64
2022/07/16 03:33:08;;;;;;;0.98;0.80;;;22.90;55.50;;;;;;5033834;28;20465;-63
2022/07/16 03:35:33;;;;;;;0.95;0.80;;;22.90;55.50;;;;;;5029418;28;20473;-64
2022/07/16 03:40:43;;;;;;;1.58;1.02;;;22.90;55.60;;;;;;5033623;28;20445;-63
2022/07/16 03:43:09;;;;;;;0.93;0.75;;;22.90;55.60;;;;;;5031393;28;20048;-64
2022/07/16 03:45:35;;;;;;;0.77;0.63;;;22.90;55.60;;;;;;5030396;28;20107;-64
2022/07/16 03:48:01;;;;;;;1.08;0.80;;;22.90;55.60;;;;;;5013418;28;20762;-65
2022/07/16 03:50:26;;;;;;;1.50;0.60;;;22.90;55.60;;;;;;5031142;28;20128;-63
2022/07/16 03:52:52;;;;;;;0.70;0.70;;;22.90;55.60;;;;;;5033011;28;20049;-64
2022/07/16 03:55:18;;;;;;;1.20;1.00;;;22.90;55.70;;;;;;5033551;28;20041;-64
2022/07/16 03:57:43;;;;;;;0.93;0.75;;;22.90;55.70;;;;;;5031628;28;20839;-64
2022/07/16 04:00:10;;;;;;;0.82;0.60;;;22.90;55.70;;;;;;5033835;28;20049;-64
2022/07/16 04:02:36;;;;;;;1.02;0.77;;;22.90;55.70;;;;;;5033279;28;20099;-64
2022/07/16 04:05:01;;;;;;;1.13;0.85;;;22.90;56.50;;;;;;5032901;28;20037;-64
2022/07/16 04:07:27;;;;;;;0.80;0.60;;;22.90;55.80;;;;;;5035098;28;20037;-64
2022/07/16 04:09:53;;;;;;;1.92;1.00;;;22.90;55.80;;;;;;5017519;28;20101;-65
2022/07/16 04:12:22;;;;;;;0.70;0.70;;;22.90;55.80;;;;;;5032010;28;20042;-64
2022/07/16 04:14:47;;;;;;;0.90;0.90;;;22.90;55.80;;;;;;5031063;28;20037;-64
2022/07/16 04:17:13;;;;;;;0.95;0.70;;;22.90;55.80;;;;;;5029105;28;20087;-64
2022/07/16 04:19:39;;;;;;;1.25;0.80;;;22.90;55.80;;;;;;5014033;28;20487;-65
2022/07/16 04:22:04;;;;;;;1.33;0.60;;;22.90;55.90;;;;;;5014395;28;20538;-64
2022/07/16 04:24:30;;;;;;;0.93;0.60;;;22.90;55.90;;;;;;5032374;28;20072;-67
2022/07/16 04:26:56;;;;;;;1.52;0.85;;;22.90;55.90;;;;;;5031879;28;20049;-65
2022/07/16 04:29:21;;;;;;;1.13;0.90;;;22.80;55.80;;;;;;5029406;28;20669;-65
2022/07/16 04:31:47;;;;;;;2.88;0.70;;;22.90;55.90;;;;;;5028231;28;20089;-64
2022/07/16 04:34:13;;;;;;;1.23;0.63;;;22.90;55.90;;;;;;5030257;28;20144;-64
2022/07/16 04:36:38;;;;;;;0.68;0.60;;;22.90;56.00;;;;;;5014115;28;20036;-65
2022/07/16 04:39:04;;;;;;;1.50;0.85;;;22.90;55.90;;;;;;5028499;28;20075;-64
2022/07/16 04:41:30;;;;;;;5.68;0.90;;;22.90;56.00;;;;;;4995677;28;20404;-64
2022/07/16 04:43:55;;;;;;;1.15;0.77;;;22.90;56.00;;;;;;5028935;28;20794;-65
2022/07/16 04:46:21;;;;;;;3.85;1.10;;;22.90;56.00;;;;;;5021027;28;20103;-64
2022/07/16 04:48:46;;;;;;;3.38;1.00;;;22.90;56.40;;;;;;5023914;28;20115;-63
2022/07/16 04:51:12;;;;;;;7.95;0.93;;;22.90;56.50;;;;;;5025083;28;20056;-64
2022/07/16 04:53:38;;;;;;;5.97;0.77;;;22.90;56.70;;;;;;5024056;28;20052;-63
2022/07/16 04:56:04;;;;;;;3.03;1.05;;;22.90;56.70;;;;;;5026954;28;20041;-64
2022/07/16 04:58:30;;;;;;;3.22;0.93;;;23.00;56.60;;;;;;5025193;28;20053;-63
2022/07/16 05:00:55;;;;;;;4.20;0.93;;;23.00;56.70;;;;;;5025254;28;20511;-64
2022/07/16 05:03:24;;;;;;;2.45;0.80;;;23.00;56.80;;;;;;5029095;28;20467;-64
2022/07/16 05:05:49;;;;;;;1.90;0.88;;;23.00;56.90;;;;;;5030091;28;20385;-62
2022/07/16 05:08:15;;;;;;;6.70;1.10;;;23.00;56.90;;;;;;5025844;28;20045;-65
2022/07/16 05:10:41;;;;;;;2.67;0.88;;;23.00;56.90;;;;;;5005967;28;20037;-64
2022/07/16 05:13:10;;;;;;;6.32;1.20;;;23.00;56.90;;;;;;5024487;28;20069;-65
2022/07/16 05:15:36;;;;;;;4.40;1.13;;;23.00;56.90;;;;;;5026221;28;20044;-64
2022/07/16 05:18:02;;;;;;;3.72;0.85;;;23.00;56.90;;;;;;5027554;28;20041;-65
2022/07/16 05:20:28;;;;;;;3.10;0.85;;;23.00;56.80;;;;;;5029473;28;20029;-64
2022/07/16 05:22:54;;;;;;;1.92;0.90;;;23.00;56.80;;;;;;5008751;28;20042;-65
2022/07/16 05:25:20;;;;;;;4.20;0.90;;;23.00;56.80;;;;;;5021868;28;20041;-65
2022/07/16 05:27:46;;;;;;;4.13;1.33;;;23.00;57.00;;;;;;5007363;28;20132;-65
2022/07/16 05:30:12;;;;;;;3.95;0.77;;;23.00;56.90;;;;;;5006859;28;20409;-64
2022/07/16 05:32:38;;;;;;;4.13;1.05;;;23.00;56.90;;;;;;5027001;28;20033;-65
2022/07/16 05:35:05;;;;;;;3.17;0.88;;;23.00;56.80;;;;;;5026333;28;20049;-64
2022/07/16 05:37:30;;;;;;;2.00;0.80;;;23.00;56.80;;;;;;5027840;28;20036;-65
2022/07/16 05:39:56;;;;;;;2.58;0.90;;;23.00;57.00;;;;;;5018743;28;20574;-65
2022/07/16 05:42:22;;;;;;;1.67;1.00;;;23.00;56.80;;;;;;5001789;28;20038;-65
2022/07/16 05:44:47;;;;;;;1.73;0.90;;;23.00;56.80;;;;;;5021880;28;20529;-66
2022/07/16 05:47:13;;;;;;;3.60;1.00;;;23.00;56.80;;;;;;5023313;28;21638;-65
2022/07/16 05:49:39;;;;;;;3.47;1.25;;;23.00;56.80;;;;;;4990101;28;20060;-65
2022/07/16 05:52:04;;;;;;;4.00;1.17;;;23.00;56.70;;;;;;5007188;28;20041;-66
2022/07/16 05:54:30;;;;;;;6.43;1.10;;;23.00;56.70;;;;;;5022526;28;20033;-66
2022/07/16 05:56:56;;;;;;;3.65;1.10;;;23.00;56.70;;;;;;5007742;28;20072;-66
2022/07/16 05:59:22;;;;;;;1.48;0.93;;;23.00;56.70;;;;;;5002688;28;20068;-65
2022/07/16 06:01:47;;;;;;;2.60;0.95;;;23.00;56.60;;;;;;5027113;28;20254;-65
2022/07/16 06:04:13;;;;;;;3.38;0.82;;;23.00;56.50;;;;;;5006970;28;20144;-65
2022/07/16 06:06:39;;;;;;;2.35;1.00;;;23.00;56.50;;;;;;5024215;28;20048;-65
2022/07/16 06:09:04;;;;;;;2.63;1.00;;;23.00;56.50;;;;;;5025636;28;20048;-66
2022/07/16 06:11:30;;;;;;;1.95;0.90;;;23.00;56.50;;;;;;5022648;28;20086;-65
2022/07/16 06:13:56;;;;;;;1.90;0.80;;;23.00;56.40;;;;;;5007243;28;20370;-66
2022/07/16 06:16:22;;;;;;;3.35;1.13;;;23.00;56.40;;;;;;5024699;28;20037;-65
2022/07/16 06:18:48;;;;;;;2.08;1.00;;;23.00;56.40;;;;;;5026473;28;20101;-64
2022/07/16 06:21:14;;;;;;;2.92;1.23;;;23.00;56.20;;;;;;5024488;28;20049;-66
2022/07/16 06:23:39;;;;;;;2.60;1.15;;;23.00;56.20;;;;;;5004901;28;20033;-64
2022/07/16 06:26:05;;;;;;;3.63;0.95;;;23.00;56.30;;;;;;5024200;28;20841;-65
2022/07/16 06:28:31;;;;;;;5.35;1.00;;;23.00;56.30;;;;;;5003472;28;20096;-65
2022/07/16 06:30:56;;;;;;;3.63;1.00;;;23.00;56.30;;;;;;5025150;28;20028;-65
2022/07/16 06:33:22;;;;;;;3.28;0.93;;;23.00;56.20;;;;;;5024709;28;20029;-65
2022/07/16 06:35:48;;;;;;;4.25;1.13;;;23.00;56.30;;;;;;5026862;28;20041;-65
2022/07/16 06:38:14;;;;;;;3.58;1.20;;;23.00;56.30;;;;;;5004363;28;20049;-65
2022/07/16 06:40:44;;;;;;;2.67;1.10;;;23.00;56.30;;;;;;5004993;28;20489;-65
2022/07/16 06:43:10;;;;;;;3.65;1.40;;;23.00;56.10;;;;;;5026558;28;20053;-64
2022/07/16 06:45:36;;;;;;;4.47;1.05;;;23.00;56.00;;;;;;5027420;28;20971;-63
2022/07/16 06:48:02;;;;;;;2.15;0.85;;;23.00;56.00;;;;;;4995176;28;20052;-65
2022/07/16 06:50:27;;;;;;;4.95;1.27;;;23.00;55.80;;;;;;5025406;28;20037;-66
2022/07/16 06:52:53;;;;;;;3.70;0.98;;;23.00;55.90;;;;;;5028675;28;20038;-66
2022/07/16 06:55:20;;;;;;;13.70;1.60;;;23.00;55.90;;;;;;5007793;28;20616;-64
2022/07/16 06:57:46;;;;;;;2.30;1.20;;;23.00;55.80;;;;;;5027622;28;20160;-65
2022/07/16 07:00:12;;;;;;;8.05;1.42;;;23.00;55.90;;;;;;5009812;28;20067;-64
2022/07/16 07:02:38;;;;;;;6.50;1.27;;;23.00;55.90;;;;;;5026301;28;20042;-64
2022/07/16 07:05:05;;;;;;;2.53;1.42;;;23.00;55.90;;;;;;5010030;28;20131;-65
2022/07/16 07:07:31;;;;;;;2.65;0.93;;;23.00;56.00;;;;;;5009694;28;20034;-65
2022/07/16 07:09:56;;;;;;;5.50;1.00;;;23.00;56.00;;;;;;5028578;28;20049;-64
2022/07/16 07:12:22;;;;;;;4.95;0.80;;;23.00;55.90;;;;;;5028183;28;20119;-64
2022/07/16 07:14:47;;;;;;;5.43;1.13;;;23.00;56.00;;;;;;5030851;28;20044;-63
2022/07/16 07:17:13;;;;;;;5.25;1.20;;;23.00;56.10;;;;;;5031178;28;20036;-64
2022/07/16 07:19:39;;;;;;;5.05;1.20;;;23.00;56.20;;;;;;5032693;28;20119;-64
2022/07/16 07:22:04;;;;;;;3.45;1.15;;;23.10;56.40;;;;;;5011699;28;20115;-64
2022/07/16 07:24:30;;;;;;;3.78;1.20;;;23.10;56.30;;;;;;5012741;28;20263;-62
2022/07/16 07:26:55;;;;;;;5.15;1.40;;;23.10;56.10;;;;;;5029780;28;20064;-64
2022/07/16 07:29:21;;;;;;;3.15;0.90;;;23.00;56.00;;;;;;5030469;28;20052;-64
2022/07/16 07:31:47;;;;;;;2.33;0.82;;;23.00;56.00;;;;;;5014444;28;20044;-64
2022/07/16 07:34:12;;;;;;;4.63;1.83;;;23.00;56.00;;;;;;5030514;28;20061;-66
2022/07/16 07:36:38;;;;;;;3.28;0.95;;;23.00;56.10;;;;;;5025425;28;20507;-63
2022/07/16 07:39:04;;;;;;;3.75;1.13;;;23.00;56.90;;;;;;4990825;28;20050;-64
2022/07/16 07:41:29;;;;;;;1.65;0.75;;;23.10;56.10;;;;;;5008396;28;20136;-63
2022/07/16 07:43:55;;;;;;;2.67;1.10;;;23.00;56.20;;;;;;5028776;28;20037;-63
2022/07/16 07:46:20;;;;;;;2.50;0.90;;;23.00;56.20;;;;;;5031889;28;20042;-64
2022/07/16 07:48:46;;;;;;;9.35;1.13;;;23.00;56.30;;;;;;5027434;28;20061;-65
2022/07/16 07:51:12;;;;;;;2.95;0.88;;;23.10;56.40;;;;;;5029281;28;20101;-64
2022/07/16 07:53:38;;;;;;;3.15;1.05;;;23.10;56.50;;;;;;5028962;28;21471;-64
2022/07/16 07:56:04;;;;;;;2.65;1.13;;;23.10;56.60;;;;;;5027343;28;20041;-64
2022/07/16 07:58:30;;;;;;;5.05;0.82;;;23.10;56.60;;;;;;4997792;28;20934;-64
2022/07/16 08:00:56;;;;;;;2.80;1.42;;;23.10;56.80;;;;;;5028975;28;20541;-65
2022/07/16 08:03:23;;;;;;;5.30;1.10;;;23.10;56.80;;;;;;5027202;28;20156;-64
2022/07/16 08:05:49;;;;;;;7.63;1.45;;;23.10;56.80;;;;;;5013357;28;20044;-63
2022/07/16 08:08:15;;;;;;;5.68;1.27;;;23.10;56.80;;;;;;5028830;28;20908;-64
2022/07/16 08:10:40;;;;;;;8.40;1.50;;;23.10;57.10;;;;;;5010259;28;20057;-64
2022/07/16 08:13:07;;;;;;;5.25;1.58;;;23.10;57.60;;;;;;5026274;28;20047;-64
2022/07/16 08:15:32;;;;;;;5.35;0.98;;;23.10;57.80;;;;;;5009316;28;20045;-64
2022/07/16 08:17:58;;;;;;;3.20;1.08;;;23.10;57.60;;;;;;5007051;28;20046;-63
2022/07/16 08:20:25;;;;;;;5.32;1.27;;;23.10;57.40;;;;;;5022192;28;20057;-63
2022/07/16 08:22:50;;;;;;;4.60;1.35;;;23.10;57.00;;;;;;5011485;28;20064;-63
2022/07/16 08:28:00;;;;;;;3.17;1.25;;;23.10;56.80;;;;;;5010134;28;20111;-63
2022/07/16 08:30:26;;;;;;;8.55;1.20;;;23.10;56.90;;;;;;5025330;28;20311;-64
2022/07/16 08:32:52;;;;;;;4.75;1.42;;;23.20;57.00;;;;;;5025961;28;20048;-64
2022/07/16 08:35:18;;;;;;;3.95;1.10;;;23.10;56.90;;;;;;5025940;28;20040;-65
2022/07/16 08:37:45;;;;;;;6.65;1.23;;;23.10;56.80;;;;;;5023499;28;20391;-65
2022/07/16 08:40:22;;;;;;;4.47;0.95;;;23.20;56.90;;;;;;5021313;28;20080;-63
2022/07/16 08:42:49;;;;;;;6.30;1.48;;;23.10;57.60;;;;;;5008451;28;20230;-64
2022/07/16 08:45:16;;;;;;;7.47;1.48;;;23.20;57.00;;;;;;5024095;28;20045;-65
2022/07/16 08:47:42;;;;;;;10.70;1.17;;;23.20;57.10;;;;;;5026665;28;20164;-63
2022/07/16 08:50:13;;;;;;;3.80;1.08;;;23.20;57.00;;;;;;5022788;28;20049;-63
2022/07/16 08:52:47;;;;;;;6.38;1.38;;;23.20;56.90;;;;;;5005417;28;20034;-64
2022/07/16 08:55:13;;;;;;;7.45;1.35;;;23.20;56.40;;;;;;4979397;28;20072;-63
2022/07/16 08:57:40;;;;;;;3.70;0.95;;;23.20;55.90;;;;;;4988270;28;20121;-64
2022/07/16 09:00:12;;;;;;;4.70;1.10;;;23.10;55.20;;;;;;5024458;28;20091;-64
2022/07/16 09:02:39;;;;;;;7.05;1.63;;;23.20;55.00;;;;;;5004834;28;20097;-62
2022/07/16 09:05:06;;;;;;;6.55;1.20;;;23.10;54.90;;;;;;5025637;28;20037;-64
2022/07/16 09:07:32;;;;;;;4.25;0.98;;;23.20;54.90;;;;;;5011360;28;20460;-65
2022/07/16 09:09:57;;;;;;;3.55;1.05;;;23.20;54.60;;;;;;5025100;28;20144;-64
2022/07/16 09:12:47;;;;;;;4.60;1.10;;;23.20;54.40;;;;;;5003303;28;20068;-63
2022/07/16 09:15:28;;;;;;;2.58;1.00;;;23.20;53.80;;;;;;5027227;28;20052;-64
2022/07/16 09:18:10;;;;;;;5.38;0.90;;;23.20;53.80;;;;;;5006169;28;20044;-62
2022/07/16 09:20:51;;;;;;;5.00;0.70;;;23.20;54.00;;;;;;5026822;28;20052;-62
2022/07/16 09:23:35;;;;;;;2.42;0.65;;;23.10;53.50;;;;;;5026649;28;20158;-62
2022/07/16 09:26:09;;;;;;;3.10;0.60;;;23.10;52.70;;;;;;5029134;28;20420;-63
2022/07/16 09:28:43;;;;;;;2.63;0.82;;;23.10;51.90;;;;;;5029136;28;20132;-62
2022/07/16 09:31:09;;;;;;;3.38;0.90;;;23.10;50.60;;;;;;5024152;28;20509;-62
2022/07/16 09:33:35;;;;;;;2.28;0.70;;;23.10;51.20;;;;;;5027057;28;20045;-62
2022/07/16 09:36:07;;;;;;;3.00;0.77;;;23.10;49.90;;;;;;5010523;28;20453;-62
2022/07/16 09:38:52;;;;;;;5.30;0.75;;;23.10;49.00;;;;;;5027553;28;20099;-62
2022/07/16 09:41:20;;;;;;;3.53;0.90;;;23.10;48.90;;;;;;5007990;28;20420;-63
2022/07/16 09:43:46;;;;;;;2.47;0.77;;;23.10;48.50;;;;;;5011704;28;20045;-62
2022/07/16 09:46:24;;;;;;;1.73;0.70;;;23.10;49.10;;;;;;5028565;28;20037;-62
2022/07/16 09:48:51;;;;;;;4.47;0.93;;;23.00;49.30;;;;;;5029209;28;20075;-62
2022/07/16 09:51:28;;;;;;;5.22;1.17;;;23.00;49.00;;;;;;5029483;28;20075;-62
2022/07/16 09:53:55;;;;;;;3.90;0.73;;;23.10;48.70;;;;;;5029068;28;20401;-62
2022/07/16 09:56:26;;;;;;;3.33;0.80;;;23.10;49.00;;;;;;5029155;28;20120;-63
2022/07/16 09:58:56;;;;;;;2.40;0.73;;;23.10;48.70;;;;;;5026930;28;20641;-63
2022/07/16 10:01:23;;;;;;;1.92;0.50;;;23.10;48.30;;;;;;5031685;28;20045;-62
2022/07/16 10:03:50;;;;;;;2.03;0.60;;;23.00;47.90;;;;;;5008182;28;20037;-63
2022/07/16 10:06:18;;;;;;;1.77;0.60;;;23.00;47.70;;;;;;5011377;28;20068;-63
2022/07/16 10:08:44;;;;;;;2.22;0.47;;;23.00;47.50;;;;;;5007215;28;20063;-62
2022/07/16 10:11:10;;;;;;;2.15;0.65;;;23.10;47.10;;;;;;5026840;28;20047;-62
2022/07/16 10:13:37;;;;;;;3.85;0.70;;;23.10;46.40;;;;;;5028826;28;20044;-63
2022/07/16 10:16:04;;;;;;;1.95;0.70;;;23.10;45.70;;;;;;5028708;28;20046;-63
2022/07/16 10:18:30;;;;;;;2.25;0.60;;;23.20;45.80;;;;;;5029327;28;20520;-61
2022/07/16 10:21:12;;;;;;;1.63;0.70;;;23.20;46.00;;;;;;5010819;28;20127;-62
2022/07/16 10:23:39;;;;;;;4.93;0.80;;;23.20;46.40;;;;;;5010297;28;20498;-62
2022/07/16 10:26:14;;;;;;;4.32;0.93;;;23.20;46.50;;;;;;5009350;28;20102;-61
2022/07/16 10:28:42;;;;;;;4.05;1.00;;;23.20;47.00;;;;;;5027751;28;20040;-62
2022/07/16 10:32:27;;;;;;;4.03;1.00;;;23.20;47.60;;;;;;5029539;28;20075;-62
2022/07/16 10:34:34;;;;;;;4.28;1.02;;;23.20;47.80;;;;;;5011211;28;20087;-63
2022/07/16 10:37:01;;;;;;;5.05;0.90;;;23.20;48.50;;;;;;4990433;28;20048;-61
2022/07/16 10:39:28;;;;;;;5.90;1.65;;;23.20;48.30;;;;;;5012381;28;20649;-60
2022/07/16 10:42:04;;;;;;;2.65;0.88;;;23.10;48.80;;;;;;5008582;28;20053;-61
2022/07/16 10:44:50;;;;;;;2.55;1.10;;;23.10;48.30;;;;;;5028766;28;20400;-61
2022/07/16 10:47:17;;;;;;;4.78;1.10;;;23.10;48.20;;;;;;5026559;28;20057;-63
2022/07/16 10:49:44;;;;;;;4.88;1.00;;;23.00;48.60;;;;;;5032229;28;20136;-62
2022/07/16 10:52:15;;;;;;;3.05;0.90;;;23.00;48.20;;;;;;5032479;28;20405;-64
2022/07/16 10:54:50;;;;;;;3.58;1.20;;;23.00;47.90;;;;;;5033495;28;20107;-63
2022/07/16 10:57:17;;;;;;;2.58;0.80;;;23.00;46.80;;;;;;5032417;28;20764;-63
2022/07/16 10:59:48;;;;;;;2.83;0.90;;;23.00;47.70;;;;;;5034360;28;20037;-62
2022/07/16 11:02:16;;;;;;;3.83;0.80;;;23.00;47.30;;;;;;5032630;28;20041;-63
2022/07/16 11:04:43;;;;;;;2.72;0.77;;;22.90;47.00;;;;;;5035090;28;20058;-62
2022/07/16 11:07:11;;;;;;;3.22;1.00;;;22.90;46.70;;;;;;5032195;28;20674;-62
2022/07/16 11:09:40;;;;;;;3.33;0.93;;;22.90;46.10;;;;;;5036537;28;20049;-62
2022/07/16 11:12:15;;;;;;;4.22;1.02;;;22.80;46.40;;;;;;5034860;28;20068;-62
2022/07/16 11:14:43;;;;;;;4.10;0.80;;;22.80;45.80;;;;;;5032825;28;20029;-62
2022/07/16 11:17:09;;;;;;;3.38;1.10;;;22.80;46.70;;;;;;5013467;28;20089;-62
2022/07/16 11:19:40;;;;;;;4.07;1.00;;;22.80;46.20;;;;;;5032904;28;20068;-63
2022/07/16 11:22:06;;;;;;;2.97;0.82;;;22.80;46.00;;;;;;5032280;28;20099;-62
2022/07/16 11:24:33;;;;;;;3.35;0.70;;;22.80;45.90;;;;;;5033698;28;20068;-63
2022/07/16 11:27:00;;;;;;;3.70;0.82;;;22.80;46.60;;;;;;5034222;28;20145;-63
2022/07/16 11:29:27;;;;;;;1.65;0.82;;;22.80;45.70;;;;;;5030095;28;20048;-63
2022/07/16 11:31:55;;;;;;;4.97;1.05;;;22.80;45.80;;;;;;5032263;28;20084;-62
2022/07/16 11:34:22;;;;;;;3.30;1.00;;;22.80;46.00;;;;;;5031163;28;20103;-63
2022/07/16 11:36:51;;;;;;;1.60;0.70;;;22.80;45.80;;;;;;5016986;28;20045;-63
2022/07/16 11:39:22;;;;;;;5.05;1.10;;;22.70;45.30;;;;;;5032083;28;20041;-63
2022/07/16 11:41:50;;;;;;;8.82;1.33;;;22.70;45.70;;;;;;5033789;28;20109;-64
2022/07/16 11:44:23;;;;;;;2.42;0.95;;;22.80;46.10;;;;;;5029287;28;20643;-62
2022/07/16 11:46:51;;;;;;;3.30;0.95;;;22.80;46.40;;;;;;5030214;28;20041;-63
2022/07/16 11:49:44;;;;;;;4.07;1.27;;;22.80;46.50;;;;;;5031651;28;20060;-65
2022/07/16 11:52:14;;;;;;;3.67;1.35;;;22.80;46.90;;;;;;5025269;28;20175;-64
2022/07/16 11:54:42;;;;;;;2.55;0.80;;;22.80;46.60;;;;;;5029720;28;20076;-64
2022/07/16 11:57:11;;;;;;;2.50;0.63;;;22.80;46.10;;;;;;5031642;28;20072;-66
2022/07/16 11:59:52;;;;;;;4.07;1.10;;;22.80;45.90;;;;;;5010019;28;20064;-64
2022/07/16 12:02:21;;;;;;;3.80;0.80;;;22.80;45.20;;;;;;5001314;28;20033;-63
2022/07/16 12:04:54;;;;;;;3.13;1.00;;;22.80;45.60;;;;;;5030978;28;20037;-63
2022/07/16 12:07:26;;;;;;;5.70;1.00;;;22.80;45.90;;;;;;5029213;28;20500;-63
2022/07/16 12:09:54;;;;;;;2.95;0.82;;;22.80;46.00;;;;;;5017793;28;20095;-63
2022/07/16 12:12:22;;;;;;;2.38;0.75;;;22.80;45.20;;;;;;5032797;28;20033;-63
2022/07/16 12:14:48;;;;;;;4.22;0.80;;;22.80;44.20;;;;;;5008032;28;20068;-63
2022/07/16 12:17:21;;;;;;;4.00;1.08;;;22.80;44.40;;;;;;5028335;28;20451;-63
2022/07/16 12:20:12;;;;;;;3.58;0.63;;;22.80;44.30;;;;;;5029973;28;20049;-64
2022/07/16 12:22:58;;;;;;;3.20;0.60;;;22.70;43.70;;;;;;5032002;28;20095;-63
2022/07/16 12:25:37;;;;;;;2.70;0.80;;;22.70;43.80;;;;;;5032730;28;20045;-62
2022/07/16 12:28:09;;;;;;;3.42;0.82;;;22.60;44.00;;;;;;5010290;28;20037;-63
2022/07/16 12:30:49;;;;;;;3.20;0.80;;;22.60;44.40;;;;;;5025411;28;20045;-63
2022/07/16 12:33:27;;;;;;;3.67;0.70;;;22.60;44.80;;;;;;5007398;28;20146;-63
2022/07/16 12:36:04;;;;;;;4.88;1.02;;;22.60;45.30;;;;;;5030952;28;20072;-62
2022/07/16 12:38:51;;;;;;;2.95;0.77;;;22.60;45.00;;;;;;5027837;28;20080;-62
2022/07/16 12:41:29;;;;;;;3.38;1.10;;;22.60;44.70;;;;;;5030833;28;20048;-62
2022/07/16 12:44:00;;;;;;;5.75;2.05;;;22.60;44.70;;;;;;5025291;28;20034;-63
2022/07/16 12:46:31;;;;;;;6.70;4.40;;;22.60;44.90;;;;;;5024497;28;20048;-62
2022/07/16 12:48:59;;;;;;;11.73;3.72;;;22.60;45.30;;;;;;5029145;28;20061;-62
2022/07/16 12:51:29;;;;;;;16.75;6.82;;;22.60;45.60;;;;;;5009241;28;20065;-62
2022/07/16 12:53:56;;;;;;;14.48;5.30;;;22.60;46.10;;;;;;5025017;28;20265;-62
2022/07/16 12:59:07;;;;;;;15.43;6.40;;;22.60;47.10;;;;;;5021414;28;20044;-63